sensor_id;sensor_type;location;lat;lon;timestamp;P1;durP1;ratioP1;P2;durP2;ratioP2
24735;SDS011;12840;48.144;17.136;2023-03-01T00:00:30;29.90;;;14.03;;
24735;SDS011;12840;48.144;17.136;2023-03-01T00:02:57;27.00;;;13.50;;
24735;SDS011;12840;48.144;17.136;2023-03-01T00:05:25;31.83;;;14.97;;
24735;SDS011;12840;48.144;17.136;2023-03-01T00:07:54;27.00;;;14.23;;
24735;SDS011;12840;48.144;17.136;2023-03-01T00:10:21;28.07;;;14.23;;
24735;SDS011;12840;48.144;17.136;2023-03-01T00:12:49;27.93;;;14.07;;
24735;SDS011;12840;48.144;17.136;2023-03-01T00:15:17;28.23;;;13.93;;
24735;SDS011;12840;48.144;17.136;2023-03-01T00:17:44;26.43;;;14.13;;
24735;SDS011;12840;48.144;17.136;2023-03-01T00:20:12;31.03;;;13.80;;
24735;SDS011;12840;48.144;17.136;2023-03-01T00:22:39;23.50;;;13.50;;
24735;SDS011;12840;48.144;17.136;2023-03-01T00:25:08;30.47;;;15.30;;
24735;SDS011;12840;48.144;17.136;2023-03-01T00:27:36;28.40;;;15.00;;
24735;SDS011;12840;48.144;17.136;2023-03-01T00:30:04;31.63;;;15.77;;
24735;SDS011;12840;48.144;17.136;2023-03-01T00:32:32;30.47;;;15.23;;
24735;SDS011;12840;48.144;17.136;2023-03-01T00:34:59;29.40;;;14.33;;
24735;SDS011;12840;48.144;17.136;2023-03-01T00:37:27;27.23;;;14.50;;
24735;SDS011;12840;48.144;17.136;2023-03-01T00:39:54;29.40;;;14.50;;
24735;SDS011;12840;48.144;17.136;2023-03-01T00:42:23;31.77;;;14.17;;
24735;SDS011;12840;48.144;17.136;2023-03-01T00:44:51;29.73;;;14.20;;
24735;SDS011;12840;48.144;17.136;2023-03-01T00:47:18;28.90;;;14.73;;
24735;SDS011;12840;48.144;17.136;2023-03-01T00:49:46;28.00;;;14.10;;
24735;SDS011;12840;48.144;17.136;2023-03-01T00:52:13;31.87;;;15.50;;
24735;SDS011;12840;48.144;17.136;2023-03-01T00:54:41;30.17;;;15.03;;
24735;SDS011;12840;48.144;17.136;2023-03-01T00:57:08;27.87;;;14.27;;
24735;SDS011;12840;48.144;17.136;2023-03-01T00:59:37;28.07;;;13.90;;
24735;SDS011;12840;48.144;17.136;2023-03-01T01:02:05;32.60;;;14.63;;
24735;SDS011;12840;48.144;17.136;2023-03-01T01:04:32;27.20;;;13.70;;
24735;SDS011;12840;48.144;17.136;2023-03-01T01:07:00;25.17;;;12.20;;
24735;SDS011;12840;48.144;17.136;2023-03-01T01:09:27;24.47;;;12.73;;
24735;SDS011;12840;48.144;17.136;2023-03-01T01:11:55;23.13;;;12.63;;
24735;SDS011;12840;48.144;17.136;2023-03-01T01:14:22;21.87;;;11.97;;
24735;SDS011;12840;48.144;17.136;2023-03-01T01:16:51;24.93;;;12.73;;
24735;SDS011;12840;48.144;17.136;2023-03-01T01:19:19;25.17;;;12.60;;
24735;SDS011;12840;48.144;17.136;2023-03-01T01:21:46;21.80;;;11.40;;
24735;SDS011;12840;48.144;17.136;2023-03-01T01:24:14;22.83;;;11.47;;
24735;SDS011;12840;48.144;17.136;2023-03-01T01:26:42;23.50;;;12.77;;
24735;SDS011;12840;48.144;17.136;2023-03-01T01:29:10;26.80;;;13.50;;
24735;SDS011;12840;48.144;17.136;2023-03-01T01:31:38;31.37;;;15.50;;
24735;SDS011;12840;48.144;17.136;2023-03-01T01:34:08;30.63;;;15.77;;
24735;SDS011;12840;48.144;17.136;2023-03-01T01:36:37;26.63;;;13.87;;
24735;SDS011;12840;48.144;17.136;2023-03-01T01:39:04;32.27;;;15.97;;
24735;SDS011;12840;48.144;17.136;2023-03-01T01:41:32;34.10;;;15.80;;
24735;SDS011;12840;48.144;17.136;2023-03-01T01:44:10;36.53;;;16.80;;
24735;SDS011;12840;48.144;17.136;2023-03-01T01:46:39;32.17;;;16.60;;
24735;SDS011;12840;48.144;17.136;2023-03-01T01:49:11;32.70;;;17.90;;
24735;SDS011;12840;48.144;17.136;2023-03-01T01:51:42;34.83;;;17.70;;
24735;SDS011;12840;48.144;17.136;2023-03-01T01:54:14;35.77;;;18.33;;
24735;SDS011;12840;48.144;17.136;2023-03-01T01:56:44;34.90;;;17.23;;
24735;SDS011;12840;48.144;17.136;2023-03-01T01:59:15;33.20;;;17.00;;
24735;SDS011;12840;48.144;17.136;2023-03-01T02:01:42;35.27;;;18.47;;
24735;SDS011;12840;48.144;17.136;2023-03-01T02:04:12;32.63;;;16.47;;
24735;SDS011;12840;48.144;17.136;2023-03-01T02:06:41;34.63;;;17.80;;
24735;SDS011;12840;48.144;17.136;2023-03-01T02:09:10;33.63;;;17.27;;
24735;SDS011;12840;48.144;17.136;2023-03-01T02:11:39;35.97;;;17.87;;
24735;SDS011;12840;48.144;17.136;2023-03-01T02:14:07;32.77;;;17.13;;
24735;SDS011;12840;48.144;17.136;2023-03-01T02:16:34;34.43;;;17.60;;
24735;SDS011;12840;48.144;17.136;2023-03-01T02:19:03;33.47;;;16.97;;
24735;SDS011;12840;48.144;17.136;2023-03-01T02:21:35;35.97;;;17.83;;
24735;SDS011;12840;48.144;17.136;2023-03-01T02:24:05;31.43;;;15.93;;
24735;SDS011;12840;48.144;17.136;2023-03-01T02:26:36;34.40;;;17.40;;
24735;SDS011;12840;48.144;17.136;2023-03-01T02:29:06;33.73;;;17.60;;
24735;SDS011;12840;48.144;17.136;2023-03-01T02:31:34;37.47;;;17.57;;
24735;SDS011;12840;48.144;17.136;2023-03-01T02:34:12;32.87;;;17.23;;
24735;SDS011;12840;48.144;17.136;2023-03-01T02:36:40;35.63;;;17.83;;
24735;SDS011;12840;48.144;17.136;2023-03-01T02:39:10;39.07;;;17.77;;
24735;SDS011;12840;48.144;17.136;2023-03-01T02:41:44;33.93;;;17.50;;
24735;SDS011;12840;48.144;17.136;2023-03-01T02:44:14;34.27;;;18.23;;
24735;SDS011;12840;48.144;17.136;2023-03-01T02:46:42;34.07;;;17.20;;
24735;SDS011;12840;48.144;17.136;2023-03-01T02:49:21;31.10;;;16.17;;
24735;SDS011;12840;48.144;17.136;2023-03-01T02:51:52;31.43;;;16.70;;
24735;SDS011;12840;48.144;17.136;2023-03-01T02:54:23;31.77;;;17.27;;
24735;SDS011;12840;48.144;17.136;2023-03-01T02:56:52;34.70;;;17.43;;
24735;SDS011;12840;48.144;17.136;2023-03-01T02:59:22;33.80;;;16.73;;
24735;SDS011;12840;48.144;17.136;2023-03-01T03:01:50;32.50;;;16.73;;
24735;SDS011;12840;48.144;17.136;2023-03-01T03:04:18;34.67;;;15.80;;
24735;SDS011;12840;48.144;17.136;2023-03-01T03:06:46;31.10;;;16.47;;
24735;SDS011;12840;48.144;17.136;2023-03-01T03:09:14;31.37;;;16.53;;
24735;SDS011;12840;48.144;17.136;2023-03-01T03:11:42;36.93;;;17.20;;
24735;SDS011;12840;48.144;17.136;2023-03-01T03:14:10;31.63;;;16.63;;
24735;SDS011;12840;48.144;17.136;2023-03-01T03:16:41;35.47;;;16.43;;
24735;SDS011;12840;48.144;17.136;2023-03-01T03:19:09;32.27;;;16.87;;
24735;SDS011;12840;48.144;17.136;2023-03-01T03:21:36;33.40;;;16.40;;
24735;SDS011;12840;48.144;17.136;2023-03-01T03:24:04;32.90;;;16.83;;
24735;SDS011;12840;48.144;17.136;2023-03-01T03:26:31;32.87;;;17.30;;
24735;SDS011;12840;48.144;17.136;2023-03-01T03:28:59;32.77;;;16.80;;
24735;SDS011;12840;48.144;17.136;2023-03-01T03:31:27;32.87;;;16.90;;
24735;SDS011;12840;48.144;17.136;2023-03-01T03:33:56;31.43;;;16.43;;
24735;SDS011;12840;48.144;17.136;2023-03-01T03:36:24;35.37;;;17.63;;
24735;SDS011;12840;48.144;17.136;2023-03-01T03:38:51;36.10;;;18.43;;
24735;SDS011;12840;48.144;17.136;2023-03-01T03:41:19;34.43;;;17.60;;
24735;SDS011;12840;48.144;17.136;2023-03-01T03:43:46;37.33;;;18.27;;
24735;SDS011;12840;48.144;17.136;2023-03-01T03:46:14;31.23;;;15.23;;
24735;SDS011;12840;48.144;17.136;2023-03-01T03:48:42;30.10;;;16.23;;
24735;SDS011;12840;48.144;17.136;2023-03-01T03:51:12;30.07;;;15.70;;
24735;SDS011;12840;48.144;17.136;2023-03-01T03:53:40;32.90;;;16.63;;
24735;SDS011;12840;48.144;17.136;2023-03-01T03:56:08;29.17;;;15.43;;
24735;SDS011;12840;48.144;17.136;2023-03-01T03:58:35;28.73;;;15.13;;
24735;SDS011;12840;48.144;17.136;2023-03-01T04:01:03;38.10;;;16.00;;
24735;SDS011;12840;48.144;17.136;2023-03-01T04:03:31;31.27;;;15.77;;
24735;SDS011;12840;48.144;17.136;2023-03-01T04:06:00;29.20;;;15.53;;
24735;SDS011;12840;48.144;17.136;2023-03-01T04:08:29;28.77;;;14.50;;
24735;SDS011;12840;48.144;17.136;2023-03-01T04:10:57;27.17;;;14.67;;
24735;SDS011;12840;48.144;17.136;2023-03-01T04:13:25;30.33;;;14.90;;
24735;SDS011;12840;48.144;17.136;2023-03-01T04:15:53;24.33;;;13.93;;
24735;SDS011;12840;48.144;17.136;2023-03-01T04:18:22;27.70;;;15.13;;
24735;SDS011;12840;48.144;17.136;2023-03-01T04:20:50;27.97;;;14.40;;
24735;SDS011;12840;48.144;17.136;2023-03-01T04:23:20;29.53;;;15.37;;
24735;SDS011;12840;48.144;17.136;2023-03-01T04:25:50;27.00;;;14.43;;
24735;SDS011;12840;48.144;17.136;2023-03-01T04:28:21;27.77;;;14.07;;
24735;SDS011;12840;48.144;17.136;2023-03-01T04:30:49;26.23;;;14.30;;
24735;SDS011;12840;48.144;17.136;2023-03-01T04:33:17;26.73;;;14.00;;
24735;SDS011;12840;48.144;17.136;2023-03-01T04:35:45;27.70;;;14.10;;
24735;SDS011;12840;48.144;17.136;2023-03-01T04:38:14;29.13;;;14.63;;
24735;SDS011;12840;48.144;17.136;2023-03-01T04:40:42;28.67;;;13.53;;
24735;SDS011;12840;48.144;17.136;2023-03-01T04:43:11;29.27;;;15.00;;
24735;SDS011;12840;48.144;17.136;2023-03-01T04:45:39;26.00;;;13.70;;
24735;SDS011;12840;48.144;17.136;2023-03-01T04:48:07;28.57;;;14.30;;
24735;SDS011;12840;48.144;17.136;2023-03-01T04:50:35;28.20;;;13.43;;
24735;SDS011;12840;48.144;17.136;2023-03-01T04:53:02;28.43;;;13.53;;
24735;SDS011;12840;48.144;17.136;2023-03-01T04:55:30;29.77;;;14.00;;
24735;SDS011;12840;48.144;17.136;2023-03-01T04:57:57;26.23;;;13.53;;
24735;SDS011;12840;48.144;17.136;2023-03-01T05:00:26;23.60;;;13.30;;
24735;SDS011;12840;48.144;17.136;2023-03-01T05:02:54;28.63;;;14.07;;
24735;SDS011;12840;48.144;17.136;2023-03-01T05:05:23;27.63;;;14.07;;
24735;SDS011;12840;48.144;17.136;2023-03-01T05:07:54;25.60;;;13.17;;
24735;SDS011;12840;48.144;17.136;2023-03-01T05:10:22;25.83;;;14.03;;
24735;SDS011;12840;48.144;17.136;2023-03-01T05:12:50;25.07;;;13.53;;
24735;SDS011;12840;48.144;17.136;2023-03-01T05:15:18;25.73;;;13.87;;
24735;SDS011;12840;48.144;17.136;2023-03-01T05:17:48;26.70;;;13.20;;
24735;SDS011;12840;48.144;17.136;2023-03-01T05:20:16;26.90;;;14.00;;
24735;SDS011;12840;48.144;17.136;2023-03-01T05:22:47;26.00;;;13.87;;
24735;SDS011;12840;48.144;17.136;2023-03-01T05:25:15;27.50;;;13.97;;
24735;SDS011;12840;48.144;17.136;2023-03-01T05:27:43;26.33;;;13.80;;
24735;SDS011;12840;48.144;17.136;2023-03-01T05:30:11;26.13;;;13.87;;
24735;SDS011;12840;48.144;17.136;2023-03-01T05:32:43;24.93;;;13.20;;
24735;SDS011;12840;48.144;17.136;2023-03-01T05:35:12;27.57;;;14.00;;
24735;SDS011;12840;48.144;17.136;2023-03-01T05:37:41;26.60;;;13.60;;
24735;SDS011;12840;48.144;17.136;2023-03-01T05:40:09;25.73;;;13.00;;
24735;SDS011;12840;48.144;17.136;2023-03-01T05:42:41;25.33;;;13.73;;
24735;SDS011;12840;48.144;17.136;2023-03-01T05:45:09;27.80;;;13.63;;
24735;SDS011;12840;48.144;17.136;2023-03-01T05:47:37;25.93;;;13.20;;
24735;SDS011;12840;48.144;17.136;2023-03-01T05:50:10;26.57;;;14.40;;
24735;SDS011;12840;48.144;17.136;2023-03-01T05:52:39;25.83;;;14.07;;
24735;SDS011;12840;48.144;17.136;2023-03-01T05:55:06;24.27;;;13.63;;
24735;SDS011;12840;48.144;17.136;2023-03-01T05:57:34;26.83;;;13.73;;
24735;SDS011;12840;48.144;17.136;2023-03-01T06:00:02;24.47;;;14.13;;
24735;SDS011;12840;48.144;17.136;2023-03-01T06:02:31;28.33;;;14.50;;
24735;SDS011;12840;48.144;17.136;2023-03-01T06:04:59;24.57;;;13.37;;
24735;SDS011;12840;48.144;17.136;2023-03-01T06:07:27;28.33;;;13.63;;
24735;SDS011;12840;48.144;17.136;2023-03-01T06:09:56;26.60;;;13.97;;
24735;SDS011;12840;48.144;17.136;2023-03-01T06:12:24;28.47;;;13.73;;
24735;SDS011;12840;48.144;17.136;2023-03-01T06:14:51;26.07;;;12.97;;
24735;SDS011;12840;48.144;17.136;2023-03-01T06:17:19;26.10;;;14.23;;
24735;SDS011;12840;48.144;17.136;2023-03-01T06:19:46;28.47;;;14.40;;
24735;SDS011;12840;48.144;17.136;2023-03-01T06:22:14;27.50;;;14.43;;
24735;SDS011;12840;48.144;17.136;2023-03-01T06:24:41;28.60;;;14.10;;
24735;SDS011;12840;48.144;17.136;2023-03-01T06:27:10;29.17;;;14.83;;
24735;SDS011;12840;48.144;17.136;2023-03-01T06:29:38;25.67;;;14.30;;
24735;SDS011;12840;48.144;17.136;2023-03-01T06:32:05;26.50;;;14.90;;
24735;SDS011;12840;48.144;17.136;2023-03-01T06:34:34;29.47;;;15.20;;
24735;SDS011;12840;48.144;17.136;2023-03-01T06:37:01;32.63;;;14.30;;
24735;SDS011;12840;48.144;17.136;2023-03-01T06:39:30;26.23;;;14.73;;
24735;SDS011;12840;48.144;17.136;2023-03-01T06:41:58;32.83;;;15.40;;
24735;SDS011;12840;48.144;17.136;2023-03-01T06:44:26;28.47;;;14.80;;
24735;SDS011;12840;48.144;17.136;2023-03-01T06:46:54;27.60;;;15.07;;
24735;SDS011;12840;48.144;17.136;2023-03-01T06:49:21;29.37;;;16.00;;
24735;SDS011;12840;48.144;17.136;2023-03-01T06:51:49;30.30;;;15.40;;
24735;SDS011;12840;48.144;17.136;2023-03-01T06:54:16;30.27;;;15.30;;
24735;SDS011;12840;48.144;17.136;2023-03-01T06:56:47;31.90;;;15.67;;
24735;SDS011;12840;48.144;17.136;2023-03-01T06:59:14;28.77;;;15.47;;
24735;SDS011;12840;48.144;17.136;2023-03-01T07:01:43;32.67;;;15.77;;
24735;SDS011;12840;48.144;17.136;2023-03-01T07:04:11;24.87;;;14.33;;
24735;SDS011;12840;48.144;17.136;2023-03-01T07:06:39;27.90;;;14.50;;
24735;SDS011;12840;48.144;17.136;2023-03-01T07:09:07;28.97;;;15.03;;
24735;SDS011;12840;48.144;17.136;2023-03-01T07:11:34;29.77;;;15.37;;
24735;SDS011;12840;48.144;17.136;2023-03-01T07:14:02;28.63;;;14.90;;
24735;SDS011;12840;48.144;17.136;2023-03-01T07:16:30;28.97;;;14.90;;
24735;SDS011;12840;48.144;17.136;2023-03-01T07:18:59;28.03;;;14.60;;
24735;SDS011;12840;48.144;17.136;2023-03-01T07:21:26;27.47;;;14.57;;
24735;SDS011;12840;48.144;17.136;2023-03-01T07:23:54;29.83;;;15.57;;
24735;SDS011;12840;48.144;17.136;2023-03-01T07:26:21;33.90;;;14.97;;
24735;SDS011;12840;48.144;17.136;2023-03-01T07:28:49;27.83;;;14.37;;
24735;SDS011;12840;48.144;17.136;2023-03-01T07:31:16;29.40;;;15.53;;
24735;SDS011;12840;48.144;17.136;2023-03-01T07:33:44;29.50;;;14.67;;
24735;SDS011;12840;48.144;17.136;2023-03-01T07:36:13;27.23;;;15.10;;
24735;SDS011;12840;48.144;17.136;2023-03-01T07:38:40;26.90;;;14.33;;
24735;SDS011;12840;48.144;17.136;2023-03-01T07:41:08;25.60;;;14.60;;
24735;SDS011;12840;48.144;17.136;2023-03-01T07:43:35;28.23;;;15.33;;
24735;SDS011;12840;48.144;17.136;2023-03-01T07:46:03;25.43;;;13.80;;
24735;SDS011;12840;48.144;17.136;2023-03-01T07:48:31;28.27;;;14.83;;
24735;SDS011;12840;48.144;17.136;2023-03-01T07:50:59;25.47;;;14.43;;
24735;SDS011;12840;48.144;17.136;2023-03-01T07:53:28;25.67;;;14.70;;
24735;SDS011;12840;48.144;17.136;2023-03-01T07:56:00;28.97;;;14.87;;
24735;SDS011;12840;48.144;17.136;2023-03-01T07:58:28;28.83;;;16.00;;
24735;SDS011;12840;48.144;17.136;2023-03-01T08:00:56;29.30;;;14.93;;
24735;SDS011;12840;48.144;17.136;2023-03-01T08:03:23;28.03;;;15.20;;
24735;SDS011;12840;48.144;17.136;2023-03-01T08:05:51;27.97;;;15.27;;
24735;SDS011;12840;48.144;17.136;2023-03-01T08:08:18;26.83;;;14.90;;
24735;SDS011;12840;48.144;17.136;2023-03-01T08:10:47;32.20;;;15.00;;
24735;SDS011;12840;48.144;17.136;2023-03-01T08:13:14;28.60;;;15.90;;
24735;SDS011;12840;48.144;17.136;2023-03-01T08:15:47;29.20;;;15.83;;
24735;SDS011;12840;48.144;17.136;2023-03-01T08:18:15;27.90;;;14.37;;
24735;SDS011;12840;48.144;17.136;2023-03-01T08:20:42;30.80;;;15.43;;
24735;SDS011;12840;48.144;17.136;2023-03-01T08:23:10;26.47;;;14.73;;
24735;SDS011;12840;48.144;17.136;2023-03-01T08:25:37;27.77;;;15.83;;
24735;SDS011;12840;48.144;17.136;2023-03-01T08:28:07;32.93;;;16.03;;
24735;SDS011;12840;48.144;17.136;2023-03-01T08:30:34;26.73;;;15.30;;
24735;SDS011;12840;48.144;17.136;2023-03-01T08:33:02;31.57;;;15.83;;
24735;SDS011;12840;48.144;17.136;2023-03-01T08:35:29;28.77;;;15.03;;
24735;SDS011;12840;48.144;17.136;2023-03-01T08:37:57;25.87;;;15.13;;
24735;SDS011;12840;48.144;17.136;2023-03-01T08:40:24;27.50;;;15.47;;
24735;SDS011;12840;48.144;17.136;2023-03-01T08:42:52;31.00;;;16.07;;
24735;SDS011;12840;48.144;17.136;2023-03-01T08:45:21;26.83;;;16.33;;
24735;SDS011;12840;48.144;17.136;2023-03-01T08:47:51;27.47;;;16.13;;
24735;SDS011;12840;48.144;17.136;2023-03-01T08:50:19;31.57;;;16.93;;
24735;SDS011;12840;48.144;17.136;2023-03-01T08:52:48;25.63;;;15.07;;
24735;SDS011;12840;48.144;17.136;2023-03-01T08:55:15;26.67;;;15.20;;
24735;SDS011;12840;48.144;17.136;2023-03-01T08:57:43;26.27;;;15.90;;
24735;SDS011;12840;48.144;17.136;2023-03-01T09:00:11;26.50;;;14.80;;
24735;SDS011;12840;48.144;17.136;2023-03-01T09:02:41;27.17;;;14.60;;
24735;SDS011;12840;48.144;17.136;2023-03-01T09:05:09;23.93;;;14.13;;
24735;SDS011;12840;48.144;17.136;2023-03-01T09:07:36;24.70;;;14.07;;
24735;SDS011;12840;48.144;17.136;2023-03-01T09:10:04;25.30;;;14.80;;
24735;SDS011;12840;48.144;17.136;2023-03-01T09:12:32;23.77;;;14.57;;
24735;SDS011;12840;48.144;17.136;2023-03-01T09:14:59;24.90;;;14.13;;
24735;SDS011;12840;48.144;17.136;2023-03-01T09:17:27;24.57;;;13.93;;
24735;SDS011;12840;48.144;17.136;2023-03-01T09:19:56;24.27;;;14.10;;
24735;SDS011;12840;48.144;17.136;2023-03-01T09:22:24;22.30;;;12.80;;
24735;SDS011;12840;48.144;17.136;2023-03-01T09:24:52;25.47;;;14.33;;
24735;SDS011;12840;48.144;17.136;2023-03-01T09:27:21;21.60;;;13.10;;
24735;SDS011;12840;48.144;17.136;2023-03-01T09:29:50;25.47;;;14.40;;
24735;SDS011;12840;48.144;17.136;2023-03-01T09:32:17;23.13;;;13.40;;
24735;SDS011;12840;48.144;17.136;2023-03-01T09:34:45;25.57;;;14.73;;
24735;SDS011;12840;48.144;17.136;2023-03-01T09:37:31;26.97;;;14.50;;
24735;SDS011;12840;48.144;17.136;2023-03-01T09:39:59;23.20;;;14.20;;
24735;SDS011;12840;48.144;17.136;2023-03-01T09:42:27;24.77;;;13.80;;
24735;SDS011;12840;48.144;17.136;2023-03-01T09:44:57;23.40;;;14.73;;
24735;SDS011;12840;48.144;17.136;2023-03-01T09:47:30;20.77;;;13.60;;
24735;SDS011;12840;48.144;17.136;2023-03-01T09:49:59;25.20;;;15.13;;
24735;SDS011;12840;48.144;17.136;2023-03-01T09:52:32;24.08;;;14.77;;
24735;SDS011;12840;48.144;17.136;2023-03-01T09:55:01;23.00;;;15.00;;
24735;SDS011;12840;48.144;17.136;2023-03-01T09:57:30;20.05;;;14.23;;
24735;SDS011;12840;48.144;17.136;2023-03-01T10:00:09;22.98;;;15.20;;
24735;SDS011;12840;48.144;17.136;2023-03-01T10:02:41;20.67;;;13.98;;
24735;SDS011;12840;48.144;17.136;2023-03-01T10:05:14;18.38;;;13.52;;
24735;SDS011;12840;48.144;17.136;2023-03-01T10:07:49;25.38;;;13.70;;
24735;SDS011;12840;48.144;17.136;2023-03-01T10:10:23;20.02;;;14.30;;
24735;SDS011;12840;48.144;17.136;2023-03-01T10:12:53;20.20;;;13.65;;
24735;SDS011;12840;48.144;17.136;2023-03-01T10:15:22;20.65;;;11.95;;
24735;SDS011;12840;48.144;17.136;2023-03-01T10:17:53;17.05;;;12.10;;
24735;SDS011;12840;48.144;17.136;2023-03-01T10:20:23;17.10;;;12.25;;
24735;SDS011;12840;48.144;17.136;2023-03-01T10:22:52;17.40;;;13.07;;
24735;SDS011;12840;48.144;17.136;2023-03-01T10:25:23;18.27;;;13.27;;
24735;SDS011;12840;48.144;17.136;2023-03-01T10:27:59;17.67;;;13.55;;
24735;SDS011;12840;48.144;17.136;2023-03-01T10:30:30;16.95;;;13.25;;
24735;SDS011;12840;48.144;17.136;2023-03-01T10:32:59;16.67;;;12.48;;
24735;SDS011;12840;48.144;17.136;2023-03-01T10:35:31;15.18;;;12.38;;
24735;SDS011;12840;48.144;17.136;2023-03-01T10:38:04;14.90;;;12.27;;
24735;SDS011;12840;48.144;17.136;2023-03-01T10:40:32;16.52;;;12.00;;
24735;SDS011;12840;48.144;17.136;2023-03-01T10:43:01;19.10;;;13.43;;
24735;SDS011;12840;48.144;17.136;2023-03-01T10:45:34;15.15;;;11.75;;
24735;SDS011;12840;48.144;17.136;2023-03-01T10:48:03;14.95;;;12.38;;
24735;SDS011;12840;48.144;17.136;2023-03-01T10:50:30;20.50;;;12.45;;
24735;SDS011;12840;48.144;17.136;2023-03-01T10:52:59;15.48;;;11.00;;
24735;SDS011;12840;48.144;17.136;2023-03-01T10:55:29;14.65;;;11.48;;
24735;SDS011;12840;48.144;17.136;2023-03-01T10:58:09;15.35;;;11.90;;
24735;SDS011;12840;48.144;17.136;2023-03-01T11:00:46;17.13;;;12.07;;
24735;SDS011;12840;48.144;17.136;2023-03-01T11:03:15;16.92;;;12.23;;
24735;SDS011;12840;48.144;17.136;2023-03-01T11:05:51;17.27;;;11.70;;
24735;SDS011;12840;48.144;17.136;2023-03-01T11:08:28;17.70;;;11.17;;
24735;SDS011;12840;48.144;17.136;2023-03-01T11:11:05;16.10;;;11.30;;
24735;SDS011;12840;48.144;17.136;2023-03-01T11:13:33;17.47;;;11.90;;
24735;SDS011;12840;48.144;17.136;2023-03-01T11:16:01;17.07;;;12.23;;
24735;SDS011;12840;48.144;17.136;2023-03-01T11:18:30;18.37;;;12.43;;
24735;SDS011;12840;48.144;17.136;2023-03-01T11:20:58;17.40;;;11.57;;
24735;SDS011;12840;48.144;17.136;2023-03-01T11:23:27;18.00;;;11.43;;
24735;SDS011;12840;48.144;17.136;2023-03-01T11:25:56;19.70;;;12.97;;
24735;SDS011;12840;48.144;17.136;2023-03-01T11:28:26;19.03;;;12.13;;
24735;SDS011;12840;48.144;17.136;2023-03-01T11:30:55;21.13;;;12.90;;
24735;SDS011;12840;48.144;17.136;2023-03-01T11:33:27;20.53;;;12.13;;
24735;SDS011;12840;48.144;17.136;2023-03-01T11:36:01;22.17;;;13.53;;
24735;SDS011;12840;48.144;17.136;2023-03-01T11:38:30;24.23;;;12.87;;
24735;SDS011;12840;48.144;17.136;2023-03-01T11:41:01;21.80;;;12.93;;
24735;SDS011;12840;48.144;17.136;2023-03-01T11:43:35;20.90;;;11.87;;
24735;SDS011;12840;48.144;17.136;2023-03-01T11:46:14;20.80;;;12.57;;
24735;SDS011;12840;48.144;17.136;2023-03-01T11:48:52;23.20;;;12.93;;
24735;SDS011;12840;48.144;17.136;2023-03-01T11:51:25;21.03;;;12.87;;
24735;SDS011;12840;48.144;17.136;2023-03-01T11:54:06;19.23;;;12.07;;
24735;SDS011;12840;48.144;17.136;2023-03-01T11:56:38;19.27;;;12.70;;
24735;SDS011;12840;48.144;17.136;2023-03-01T12:04:57;19.53;;;11.40;;
24735;SDS011;12840;48.144;17.136;2023-03-01T12:07:30;22.30;;;12.60;;
24735;SDS011;12840;48.144;17.136;2023-03-01T12:10:04;19.30;;;12.00;;
24735;SDS011;12840;48.144;17.136;2023-03-01T12:12:37;16.00;;;11.17;;
24735;SDS011;12840;48.144;17.136;2023-03-01T12:15:29;19.23;;;11.70;;
24735;SDS011;12840;48.144;17.136;2023-03-01T12:18:15;21.93;;;13.37;;
24735;SDS011;12840;48.144;17.136;2023-03-01T12:20:45;21.47;;;13.07;;
24735;SDS011;12840;48.144;17.136;2023-03-01T12:23:20;22.40;;;11.70;;
24735;SDS011;12840;48.144;17.136;2023-03-01T12:25:54;18.60;;;11.50;;
24735;SDS011;12840;48.144;17.136;2023-03-01T12:28:25;21.00;;;11.90;;
24735;SDS011;12840;48.144;17.136;2023-03-01T12:31:05;18.53;;;11.50;;
24735;SDS011;12840;48.144;17.136;2023-03-01T12:33:41;19.60;;;12.00;;
24735;SDS011;12840;48.144;17.136;2023-03-01T12:36:16;21.07;;;12.57;;
24735;SDS011;12840;48.144;17.136;2023-03-01T12:38:48;20.70;;;12.40;;
24735;SDS011;12840;48.144;17.136;2023-03-01T12:41:21;19.97;;;11.53;;
24735;SDS011;12840;48.144;17.136;2023-03-01T12:43:54;19.80;;;11.53;;
24735;SDS011;12840;48.144;17.136;2023-03-01T12:46:28;20.83;;;12.17;;
24735;SDS011;12840;48.144;17.136;2023-03-01T12:49:02;19.20;;;11.97;;
24735;SDS011;12840;48.144;17.136;2023-03-01T12:51:34;18.67;;;11.87;;
24735;SDS011;12840;48.144;17.136;2023-03-01T12:54:05;19.53;;;11.97;;
24735;SDS011;12840;48.144;17.136;2023-03-01T12:56:35;18.50;;;11.73;;
24735;SDS011;12840;48.144;17.136;2023-03-01T12:59:05;17.07;;;11.17;;
24735;SDS011;12840;48.144;17.136;2023-03-01T13:01:39;20.07;;;11.97;;
24735;SDS011;12840;48.144;17.136;2023-03-01T13:04:19;18.20;;;10.87;;
24735;SDS011;12840;48.144;17.136;2023-03-01T13:06:53;18.10;;;11.03;;
24735;SDS011;12840;48.144;17.136;2023-03-01T13:09:23;18.30;;;10.93;;
24735;SDS011;12840;48.144;17.136;2023-03-01T13:11:52;17.40;;;11.00;;
24735;SDS011;12840;48.144;17.136;2023-03-01T13:17:07;19.27;;;12.33;;
24735;SDS011;12840;48.144;17.136;2023-03-01T13:19:57;16.00;;;10.50;;
24735;SDS011;12840;48.144;17.136;2023-03-01T13:22:27;20.13;;;11.93;;
24735;SDS011;12840;48.144;17.136;2023-03-01T13:25:10;17.83;;;11.63;;
24735;SDS011;12840;48.144;17.136;2023-03-01T13:27:39;19.37;;;11.97;;
24735;SDS011;12840;48.144;17.136;2023-03-01T13:30:38;19.57;;;11.60;;
24735;SDS011;12840;48.144;17.136;2023-03-01T13:35:51;18.40;;;12.00;;
24735;SDS011;12840;48.144;17.136;2023-03-01T13:38:39;22.60;;;11.23;;
24735;SDS011;12840;48.144;17.136;2023-03-01T13:41:12;17.37;;;11.00;;
24735;SDS011;12840;48.144;17.136;2023-03-01T13:43:46;16.30;;;10.33;;
24735;SDS011;12840;48.144;17.136;2023-03-01T13:46:16;16.80;;;10.60;;
24735;SDS011;12840;48.144;17.136;2023-03-01T13:48:45;18.53;;;11.63;;
24735;SDS011;12840;48.144;17.136;2023-03-01T13:51:14;22.77;;;11.23;;
24735;SDS011;12840;48.144;17.136;2023-03-01T13:53:44;17.60;;;10.30;;
24735;SDS011;12840;48.144;17.136;2023-03-01T13:56:12;14.30;;;9.37;;
24735;SDS011;12840;48.144;17.136;2023-03-01T13:58:46;14.97;;;9.27;;
24735;SDS011;12840;48.144;17.136;2023-03-01T14:01:21;15.87;;;9.27;;
24735;SDS011;12840;48.144;17.136;2023-03-01T14:03:48;15.80;;;9.60;;
24735;SDS011;12840;48.144;17.136;2023-03-01T14:06:17;16.93;;;9.83;;
24735;SDS011;12840;48.144;17.136;2023-03-01T14:08:48;16.50;;;10.00;;
24735;SDS011;12840;48.144;17.136;2023-03-01T14:14:06;16.33;;;9.07;;
24735;SDS011;12840;48.144;17.136;2023-03-01T14:16:37;16.63;;;9.03;;
24735;SDS011;12840;48.144;17.136;2023-03-01T14:19:10;16.73;;;9.53;;
24735;SDS011;12840;48.144;17.136;2023-03-01T14:21:42;15.63;;;9.07;;
24735;SDS011;12840;48.144;17.136;2023-03-01T14:24:18;17.03;;;9.23;;
24735;SDS011;12840;48.144;17.136;2023-03-01T14:26:47;18.67;;;9.80;;
24735;SDS011;12840;48.144;17.136;2023-03-01T14:29:25;15.63;;;9.07;;
24735;SDS011;12840;48.144;17.136;2023-03-01T14:31:53;17.53;;;9.13;;
24735;SDS011;12840;48.144;17.136;2023-03-01T14:34:21;16.23;;;9.67;;
24735;SDS011;12840;48.144;17.136;2023-03-01T14:36:49;17.03;;;8.90;;